Dousman, WI

4:29 PM CST on December 18, 2014 (GMT -0600)
Watertown Municipal | Change Station
CLOSE
Current Station
Airport
Location: Watertown,
Elevation: 833 ft
Nearby Weather Stations
Active Advisory: Special Weather Statement

Elev 833 ft 43.17 °N, 88.72 °W | Updated 14 minutes ago

Overcast
Overcast
27 °F
Feels Like 19 °F
N
7
Wind Variable Wind from NNW

Today
High -- | Low -- °F
--% Chance of Precip.
Yesterday
High -- | Low -- °F
Precip. -- in
7:20 AM 4:20 PM
Waning Crescent, 12% visible
Pressure 30.22 in
Visibility 10.0 miles
Clouds Overcast 1000 ft
Windchill 19 °F
Dew Point 25 °F
Humidity 94%
Rainfall 0.00 in
Snow Depth Not available.
UV 0 out of 12
Pollen .10 out of 12
Air Quality Not available.
Flu Activity Not available.
METAR KRYV 182215Z AUTO 33006KT 10SM OVC010 M03/M04 A3022 RMK AO2 T10301038

More Conditions Fewer Conditions

Pressure 30.22 in
Visibility 10.0 miles
Clouds Overcast 1000 ft
Windchill 19 °F
Dew Point 25 °F
Humidity 94%
Rainfall 0.00 in
Snow Depth Not available.
UV 0 out of 12
Pollen .10 out of 12
Air Quality Not available.
Flu Activity Not available.
METAR KRYV 182215Z AUTO 33006KT 10SM OVC010 M03/M04 A3022 RMK AO2 T10301038

More Conditions Fewer Conditions

10-Day Weather Forecast

Almanac

Astronomy

Dec. 18, 2014 Rise Set
Actual Time
Civil Twilight
Nautical Twilight
Astronomical Twilight
Moon
Length of Visible Light
Length of Day
Tomorrow will be .
, % of the Moon is Illuminated

Today's Extremes

State Highs State Lows

Community

WunderPhotos

Upload Photos

1,779,010 photos uploaded!

WunderBlogs® & News

Nearby

Air Quality

  Air Quality AQ Index Pollutant
Not available.

Snow Depth

Station Depth Elevation

Earthquake Activity

City Distance Mag. Time & Date
Minimum magnitude displayed is 2.5.

Coastal Water Temperatures

Place Temperature

Nearby Weather Stations